Japan Airlines Virtual Airport Information Service

Naha Airport

ICAO: ROAH Country: Japan
Latitude: 26.1958 Longitude: 127.646
Latest Arrival : JAC9101 (RJKA-ROAH) Latest Departure : JTA617 (ROAH-ROIG)


WX CaptureLIVE
Data provided by noaa.gov | Fetched at 12:58:39

METAR : ROAH 061230Z 17008KT 9999 FEW017 29/26 Q1013 RMK 1CU017 A2992

TAF : ROAH 061107Z 0612/0718 14006KT 9999 FEW015 SCT025


Runway Data for ROAH
Data provided by openaviationdata.com

Runway ID Mag Var Hdg Length Elevation Surface ILS Freq ILS Id ILS Slope
18 -4 181° 9872 ft 11 ft Asphalt -- -- --
36 -4 9872 ft 11 ft Asphalt 110.3 IOK 2

Naha Airport, Japan
Use only for reference purposes



Not for navigational purposes.